Flight Track Log - Related Links

Times and Time Zones

All times are in EDT time to prevent confusion due to time zone crossing. See the N101UD flight status page for this flight to view local times or setup timezone preferences in your user account.

Time Position Orientation Groundspeed Altitude Reporting Facility
EDT Latitude Longitude Course Direction KTS MPH feet Rate Location/Type
Sun 01:32:58 PM 28.4306 -81.3220 176° South 153 176 500  Level FlightAware ADS-B
Sun 01:33:17 PM 28.4183 -81.3155 139° Southeast 184 212 1,400 3,150 Climbing FlightAware ADS-B
Sun 01:33:38 PM 28.4044 -81.2994 132° Southeast 206 237 2,600 3,659 Climbing FlightAware ADS-B
Sun 01:33:58 PM 28.3904 -81.2826 133° Southeast 220 253 3,900 3,797 Climbing FlightAware ADS-B
Sun 01:34:57 PM 28.3747 -81.2213 49° Northeast 281 323 7,600 3,840 Climbing FlightAware ADS-B
Sun 01:35:38 PM 28.4128 -81.1896 North 295 339 10,300 3,111 Climbing FlightAware ADS-B
Sun 01:36:18 PM 28.4804 -81.1976 343° North 339 390 11,800 2,506 Climbing FlightAware ADS-B
Sun 01:36:57 PM 28.5322 -81.2142 345° North 364 419 13,600 3,034 Climbing FlightAware ADS-B
Sun 01:37:45 PM 28.6206 -81.2411 344° North 371 427 16,200 3,111 Climbing FlightAware ADS-B (KSFB)
Sun 01:38:18 PM 28.6749 -81.2579 346° North 382 440 17,800 3,000 Climbing FlightAware ADS-B
Sun 01:38:49 PM 28.7255 -81.2731 345° North 387 445 19,400 2,903 Climbing FlightAware ADS-B (KSFB)
Sun 01:39:20 PM 28.7801 -81.2901 345° North 398 458 20,800 2,480 Climbing FlightAware ADS-B (KSFB)
Sun 01:40:04 PM 28.8390 -81.3083 345° North 421 484 22,500 2,125 Climbing FlightAware ADS-B (KSFB)
Sun 01:40:56 PM 28.9659 -81.3473 345° North 437 503 24,200 2,120 Climbing FlightAware ADS-B (KSFB)
Sun 01:42:17 PM 29.1260 -81.3904 354° North 446 513 27,200 1,743 Climbing FlightAware ADS-B
Sun 01:44:57 PM 29.3858 -81.3980 North 485 558 31,200 1,459 Climbing FlightAware ADS-B
Sun 01:45:18 PM 29.4743 -81.3953 North 484 557 31,600 1,091 Climbing FlightAware ADS-B
Sun 01:46:36 PM 29.6684 -81.3820 North 481 554 33,000 743 Climbing FlightAware ADS-B
Sun 01:47:11 PM 29.7378 -81.3786 North 461 531 33,000 695 Level Jacksonville Center
Sun 01:48:11 PM 29.8714 -81.3811 359° North 467 537 34,100 1,300 Climbing Jacksonville Center
Sun 01:49:11 PM 30.0008 -81.3864 358° North 467 537 35,600 1,400 Climbing Jacksonville Center
Sun 01:50:11 PM 30.1303 -81.3917 358° North 467 537 36,900 700 Climbing Jacksonville Center
Sun 01:51:11 PM 30.2639 -81.3967 358° North 467 537 37,000 200 Climbing Jacksonville Center
Sun 01:52:11 PM 30.4122 -81.4017 358° North 479 551 37,300 900 Climbing Jacksonville Center
Sun 01:53:11 PM 30.5439 -81.4092 357° North 474 545 38,800 1,500 Climbing Jacksonville Center
Sun 01:54:11 PM 30.6733 -81.4119 359° North 469 540 40,300 1,100 Climbing Jacksonville Center
Sun 01:55:11 PM 30.7986 -81.4172 358° North 463 533 41,000 350 Climbing Jacksonville Center
Sun 01:56:11 PM 30.9261 -81.4250 357° North 458 527 41,000  Level Jacksonville Center
Sun 01:57:11 PM 31.0536 -81.4303 358° North 458 527 41,000 500 Level Jacksonville Center
Sun 01:58:11 PM 31.1789 -81.4356 358° North 447 514 42,000 850 Climbing Jacksonville Center
Sun 01:59:11 PM 31.3019 -81.4239 North 434 499 42,700 600 Climbing Jacksonville Center
Sun 02:00:11 PM 31.4228 -81.3928 12° North 445 512 43,200 550 Climbing Jacksonville Center
Sun 02:01:11 PM 31.5475 -81.3592 13° North 451 519 43,800 550 Climbing Jacksonville Center
Sun 02:02:11 PM 31.6725 -81.3278 12° North 451 519 44,300 400 Climbing Jacksonville Center
Sun 02:04:11 PM 31.9075 -81.2628 13° North 451 519 45,000 233 Climbing Jacksonville Center
Sun 02:05:11 PM 32.0325 -81.2311 12° North 451 519 45,000  Level Jacksonville Center
Sun 02:06:11 PM 32.1572 -81.1919 15° North 451 519 45,000  Level Jacksonville Center
Sun 02:07:11 PM 32.2772 -81.1208 27° Northeast 451 519 45,000  Level Jacksonville Center
Sun 02:08:11 PM 32.3975 -81.0569 24° Northeast 465 535 45,000  Level Jacksonville Center
Sun 02:09:11 PM 32.5156 -80.9858 27° Northeast 470 541 45,000  Level Jacksonville Center
Sun 02:10:11 PM 32.6333 -80.9167 26° Northeast 470 541 45,000  Level Jacksonville Center
Sun 02:11:11 PM 32.7511 -80.8450 27° Northeast 470 541 45,000  Level Jacksonville Center
Sun 02:12:11 PM 32.8669 -80.7781 26° Northeast 465 535 45,000  Level Jacksonville Center
Sun 02:13:11 PM 32.9847 -80.7108 26° Northeast 459 528 45,000  Level Jacksonville Center
Sun 02:14:11 PM 33.1131 -80.6358 26° Northeast 464 534 45,000  Level Jacksonville Center
Sun 02:15:11 PM 33.2328 -80.5633 27° Northeast 464 534 45,000  Level Jacksonville Center
Sun 02:21:00 PM 33.9201 -80.1429 27° Northeast 472 543 45,000  Level FlightAware ADS-B
Sun 02:22:11 PM 34.0531 -80.0653 27° Northeast 464 534 45,000  Level Jacksonville Center
Sun 02:23:11 PM 34.1661 -79.9964 27° Northeast 464 534 45,000  Level Jacksonville Center
Sun 02:24:11 PM 34.2814 -79.9247 27° Northeast 464 534 45,000 -50 Level Jacksonville Center
Sun 02:25:11 PM 34.3944 -79.8553 27° Northeast 459 528 44,900  Descending Jacksonville Center
Sun 02:27:32 PM 34.6439 -79.6967 28° Northeast 472 543 45,000 30 Climbing Washington Center
Sun 02:28:29 PM 34.7589 -79.6267 27° Northeast 467 537 45,000  Level Washington Center
Sun 02:29:29 PM 34.8761 -79.5539 27° Northeast 467 537 45,000  Level Washington Center
Sun 02:30:30 PM 34.9911 -79.4836 27° Northeast 462 532 45,000  Level Washington Center
Sun 02:31:30 PM 35.1039 -79.4128 27° Northeast 462 532 45,000  Level Washington Center
Sun 02:32:31 PM 35.2147 -79.3419 28° Northeast 457 526 45,000  Level Washington Center
Sun 02:33:31 PM 35.3422 -79.2639 27° Northeast 457 526 45,000  Level Washington Center
Sun 02:34:29 PM 35.4531 -79.1925 28° Northeast 457 526 45,000  Level Washington Center
Sun 02:35:30 PM 35.5658 -79.1208 27° Northeast 457 526 45,000  Level Washington Center
Sun 02:36:31 PM 35.6678 -79.0589 26° Northeast 450 518 45,000  Level Washington Center
Sun 02:37:29 PM 35.7911 -78.9772 28° Northeast 450 518 45,000  Level Washington Center
Sun 02:38:30 PM 35.9058 -78.9053 27° Northeast 455 524 45,000  Level Washington Center
Sun 02:39:31 PM 36.0183 -78.8328 28° Northeast 455 524 45,000  Level Washington Center
Sun 02:40:31 PM 36.1308 -78.7578 28° Northeast 455 524 45,000  Level Washington Center
Sun 02:41:29 PM 36.2456 -78.6853 27° Northeast 455 524 45,000  Level Washington Center
Sun 02:42:29 PM 36.3581 -78.6122 28° Northeast 455 524 45,000  Level Washington Center
Sun 02:43:30 PM 36.4683 -78.5364 29° Northeast 455 524 45,000  Level Washington Center
Sun 02:44:30 PM 36.5828 -78.4631 27° Northeast 455 524 45,000  Level Washington Center
Sun 02:45:31 PM 36.6825 -78.3969 28° Northeast 455 524 45,000  Level Washington Center
Sun 02:49:52 PM 37.1502 -77.9769 36° Northeast 461 531 45,000  Level FlightAware ADS-B (KWWD)
Sun 02:55:05 PM 37.7040 -77.4684 37° Northeast 461 531 45,000  Level FlightAware ADS-B (KWWD)
Sun 02:56:30 PM 37.8508 -77.3320 37° Northeast 464 534 45,000  Level FlightAware ADS-B (KWWD)
Sun 02:57:22 PM 37.9414 -77.2475 37° Northeast 464 534 45,000  Level FlightAware ADS-B (KWWD)
Sun 02:58:06 PM 38.0139 -77.1795 37° Northeast 460 529 45,000  Level FlightAware ADS-B (KWWD)
Sun 02:58:52 PM 38.0953 -77.1036 36° Northeast 456 525 45,000  Level FlightAware ADS-B (KWWD)
Sun 02:59:23 PM 38.1477 -77.0602 32° Northeast 438 504 45,000  Level FlightAware ADS-B (KWWD)
Sun 02:59:45 PM 38.1866 -77.0300 31° Northeast 436 502 45,000  Level FlightAware ADS-B (KWWD)
Sun 03:00:33 PM 38.2697 -76.9660 31° Northeast 432 497 45,000  Level FlightAware ADS-B (KWWD)
Sun 03:00:41 PM 38.2795 -76.9585 31° Northeast 426 490 45,000  Level FlightAware ADS-B (KDAA)
Sun 03:01:10 PM 38.3273 -76.9214 31° Northeast 421 484 45,000  Level FlightAware ADS-B (KDAA)
Sun 03:01:22 PM 38.3499 -76.9041 31° Northeast 417 480 45,000  Level FlightAware ADS-B (KWWD)
Sun 03:01:41 PM 38.3787 -76.8817 31° Northeast 411 473 45,000  Level FlightAware ADS-B (KDAA)
Sun 03:02:04 PM 38.4186 -76.8508 31° Northeast 403 464 45,000  Level FlightAware ADS-B
Sun 03:02:12 PM 38.4291 -76.8428 31° Northeast 400 460 45,000  Level FlightAware ADS-B (KDAA)
Sun 03:02:41 PM 38.4754 -76.8068 31° Northeast 395 455 45,000  Level FlightAware ADS-B (KDAA)
Sun 03:02:43 PM 38.4792 -76.8039 31° Northeast 395 455 45,000  Level FlightAware ADS-B (KWWD)
Sun 03:03:12 PM 38.5237 -76.7692 31° Northeast 386 444 45,000  Level FlightAware ADS-B (KDAA)
Sun 03:03:37 PM 38.5622 -76.7391 32° Northeast 378 435 45,000  Level FlightAware ADS-B (KWWD)
Sun 03:04:00 PM 38.5961 -76.7126 31° Northeast 383 441 45,000  Level FlightAware ADS-B (KDAA)
Sun 03:04:23 PM 38.6320 -76.6847 31° Northeast 381 438 45,000  Level FlightAware ADS-B (KWWD)
Sun 03:04:31 PM 38.6422 -76.6767 31° Northeast 380 437 45,000  Level FlightAware ADS-B (KDAA)
Sun 03:05:02 PM 38.6871 -76.6416 31° Northeast 378 435 45,000  Level FlightAware ADS-B (KDAA)
Sun 03:05:05 PM 38.6949 -76.6356 32° Northeast 378 435 45,000  Level FlightAware ADS-B (KWWD)
Sun 03:05:33 PM 38.7339 -76.6050 31° Northeast 376 433 45,000  Level FlightAware ADS-B (KDAA)
Sun 03:05:37 PM 38.7427 -76.5981 32° Northeast 377 434 45,000  Level FlightAware ADS-B (KWWD)
Sun 03:06:02 PM 38.7784 -76.5701 31° Northeast 376 433 45,000  Level FlightAware ADS-B (KDAA)
Sun 03:06:16 PM 38.8004 -76.5528 32° Northeast 378 435 45,000  Level FlightAware ADS-B (KWWD)
Sun 03:06:32 PM 38.8200 -76.5375 31° Northeast 377 434 45,000  Level FlightAware ADS-B (KDAA)
Sun 03:06:52 PM 38.8530 -76.5114 32° Northeast 377 434 45,000  Level FlightAware ADS-B (KWWD)
Sun 03:07:03 PM 38.8688 -76.4990 31° Northeast 378 435 45,000  Level FlightAware ADS-B (KDAA)
Sun 03:07:31 PM 38.9123 -76.4647 31° Northeast 378 435 45,000  Level FlightAware ADS-B (KDAA)
Sun 03:07:57 PM 38.9200 -76.4586 31° Northeast 379 436 45,000  Level FlightAware ADS-B (KDAA)
Sun 03:08:05 PM 38.9618 -76.4256 32° Northeast 379 436 45,000  Level FlightAware ADS-B (KWWD)
Sun 03:08:22 PM 38.9708 -76.4185 31° Northeast 380 437 45,000  Level FlightAware ADS-B (KDAA)
Sun 03:08:43 PM 39.0194 -76.3801 32° Northeast 382 440 45,000  Level FlightAware ADS-B (KWWD)
Sun 03:09:02 PM 39.0454 -76.3604 26° Northeast 380 437 45,000  Level FlightAware ADS-B (KDAA)
Sun 03:09:08 PM 39.0588 -76.3526 18° North 376 433 45,000  Level FlightAware ADS-B (KWWD)
Sun 03:09:35 PM 39.1027 -76.3403 North 360 414 45,000  Level FlightAware ADS-B (KWWD)
Sun 03:09:43 PM 39.1169 -76.3399 358° North 356 410 45,000  Level FlightAware ADS-B (KWWD)
Sun 03:10:02 PM 39.1482 -76.3455 26° Northeast 380 437 45,000  Level FlightAware ADS-B (KDAA)
Sun 03:10:04 PM 39.1514 -76.3466 344° North 348 400 45,000  Level FlightAware ADS-B (KWWD)
Sun 03:10:35 PM 39.1958 -76.3746 323° Northwest 342 394 45,000  Level FlightAware ADS-B (KWWD)
Sun 03:10:52 PM 39.2141 -76.3958 339° North 352 405 45,000  Level FlightAware ADS-B (KDAA)
Sun 03:11:05 PM 39.2290 -76.4208 314° West 347 399 45,000  Level FlightAware ADS-B (KWWD)
Sun 03:11:07 PM 39.2301 -76.4229 303° West 345 397 45,000  Level FlightAware ADS-B (KDAA)
Sun 03:11:21 PM 39.2405 -76.4501 292° West 342 394 45,000  Level FlightAware ADS-B (KWWD)
Sun 03:11:27 PM 39.2437 -76.4617 289° West 345 397 45,000  Level FlightAware ADS-B (KDAA)
Sun 03:11:57 PM 39.2495 -76.5211 268° West 352 405 45,000  Level FlightAware ADS-B (KDAA)
Sun 03:12:00 PM 39.2493 -76.5257 266° West 353 406 45,000  Level FlightAware ADS-B (LFML / MRS)
Sun 03:12:22 PM 39.2431 -76.5673 252° West 362 417 45,000  Level FlightAware ADS-B (KDAA)
Sun 03:12:42 PM 39.2267 -76.6123 240° Southwest 372 428 45,000  Level FlightAware ADS-B (KDAA)
Sun 03:13:03 PM 39.2106 -76.6394 225° Southwest 386 444 45,000  Level FlightAware ADS-B (KDAA)
Sun 03:13:22 PM 39.1758 -76.6776 214° Southwest 398 458 45,000  Level FlightAware ADS-B (KDAA)
Sun 03:13:29 PM 39.1653 -76.6858 210° Southwest 404 465 45,000  Level FlightAware ADS-B (LFML / MRS)
Sun 03:13:53 PM 39.1308 -76.7049 197° South 419 482 45,000  Level FlightAware ADS-B (KDAA)
Sun 03:13:55 PM 39.1173 -76.7097 196° South 420 483 45,000  Level FlightAware ADS-B (KWWD)
Sun 03:14:22 PM 39.0662 -76.7239 196° South 424 488 45,000  Level FlightAware ADS-B (KDAA)
Sun 03:14:24 PM 39.0624 -76.7252 198° South 423 487 45,000  Level FlightAware ADS-B (KWWD)
Sun 03:14:52 PM 39.0097 -76.7464 194° South 427 491 45,000  Level FlightAware ADS-B (KDAA)
Sun 03:14:55 PM 39.0039 -76.7480 198° South 423 487 45,000  Level FlightAware ADS-B (KWWD)
Sun 03:15:12 PM 38.9737 -76.7528 183° South 436 502 45,000  Level FlightAware ADS-B (KDAA)
Sun 03:15:32 PM 38.9302 -76.7502 172° South 444 511 45,000  Level FlightAware ADS-B (KDAA)
Sun 03:15:35 PM 38.9258 -76.7493 172° South 438 504 45,000  Level FlightAware ADS-B (KWWD)
Sun 03:15:55 PM 38.8847 -76.7357 161° South 447 514 45,000  Level FlightAware ADS-B (KWWD)
Sun 03:16:02 PM 38.8807 -76.7338 157° South 456 525 45,000  Level FlightAware ADS-B (KDAA)
Sun 03:16:24 PM 38.8300 -76.6999 147° Southeast 463 533 45,000  Level FlightAware ADS-B (KWWD)
Sun 03:16:32 PM 38.8166 -76.6871 141° Southeast 464 534 45,000  Level FlightAware ADS-B (KDAA)
Sun 03:16:46 PM 38.7938 -76.6611 134° Southeast 469 540 45,000  Level FlightAware ADS-B (KWWD)
Sun 03:17:03 PM 38.7734 -76.6309 126° Southeast 470 541 45,000  Level FlightAware ADS-B (KDAA)
Sun 03:17:22 PM 38.7486 -76.5801 117° Southeast 467 537 45,000  Level FlightAware ADS-B (KWWD)
Sun 03:17:27 PM 38.7448 -76.5701 115° Southeast 470 541 45,000  Level FlightAware ADS-B (KDAA)
Sun 03:17:45 PM 38.7303 -76.5196 104° East 466 536 45,000  Level FlightAware ADS-B (KWWD)
Sun 03:17:52 PM 38.7270 -76.5019 102° East 466 536 45,000 -200 Level FlightAware ADS-B (KDAA)
Sun 03:18:15 PM 38.7216 -76.4382 92° East 462 532 44,900 -343 Descending FlightAware ADS-B (KWWD)
Sun 03:18:27 PM 38.7226 -76.4066 96° East 463 533 44,800 -800 Descending FlightAware ADS-B (KDAA)
Sun 03:18:30 PM 38.7233 -76.3985 84° East 463 533 44,700 -1,600 Descending FlightAware ADS-B (KDAA)
Sun 03:18:42 PM 38.7280 -76.3649 78° East 465 535 44,400 -1,600 Descending FlightAware ADS-B (KWWD)
Sun 03:19:00 PM 38.7406 -76.3174 63° Northeast 466 536 43,900 -1,535 Descending FlightAware ADS-B (KWWD)
Sun 03:19:25 PM 38.7663 -76.2639 51° Northeast 457 526 43,300 -1,527 Descending FlightAware ADS-B (KWWD)
Sun 03:19:55 PM 38.8087 -76.2135 34° Northeast 432 497 42,500 -1,787 Descending FlightAware ADS-B (KWWD)
Sun 03:20:12 PM 38.8468 -76.1922 North 392 451 41,900 -1,862 Descending FlightAware ADS-B (KWWD)
Sun 03:20:24 PM 38.8678 -76.1910 357° North 386 444 41,600 -1,500 Descending FlightAware ADS-B (KWWD)
Sun 03:20:28 PM 38.8751 -76.1923 343° North 368 423 41,500 -1,667 Descending FlightAware ADS-B (KWWD)
Sun 03:20:42 PM 38.8968 -76.2025 331° Northwest 354 407 41,100 -1,667 Descending FlightAware ADS-B (KWWD)
Sun 03:20:46 PM 38.9015 -76.2062 33° Northeast 439 505 41,000 -2,250 Descending FlightAware ADS-B (KDAA)
Sun 03:21:06 PM 38.9267 -76.2314 319° Northwest 340 391 40,200 -2,667 Descending FlightAware ADS-B (KWWD)
Sun 03:21:40 PM 38.9680 -76.2804 314° West 346 398 38,600 -2,743 Descending FlightAware ADS-B (KWWD)
Sun 03:22:16 PM 39.0075 -76.3359 310° West 348 400 37,000 -2,197 Descending FlightAware ADS-B (KWWD)
Sun 03:22:51 PM 39.0407 -76.3941 304° West 346 398 36,000 -870 Descending FlightAware ADS-B (KWWD)
Sun 03:23:25 PM 39.0703 -76.4520 303° West 330 380 36,000  Level FlightAware ADS-B (KWWD)
Sun 03:23:55 PM 39.0935 -76.4970 33° Northeast 439 505 36,000  Level FlightAware ADS-B (KDAA)
Sun 03:23:58 PM 39.0975 -76.5045 304° West 319 367 36,000 -250 Level FlightAware ADS-B (KWWD)
Sun 03:24:19 PM 39.1134 -76.5340 306° West 318 366 35,900 -545 Descending FlightAware ADS-B (KDAA)
Sun 03:24:31 PM 39.1236 -76.5526 301° West 319 367 35,700 -2,364 Descending FlightAware ADS-B (KWWD)
Sun 03:24:52 PM 39.1362 -76.5939 278° West 351 404 34,600 -3,000 Descending FlightAware ADS-B (KDAA)
Sun 03:25:13 PM 39.1295 -76.6385 247° West 393 452 33,600 -2,786 Descending FlightAware ADS-B (KDAA)
Sun 03:25:20 PM 39.1227 -76.6544 238° Southwest 404 465 33,300 -2,700 Descending FlightAware ADS-B (KWWD)
Sun 03:25:53 PM 39.0906 -76.7191 239° Southwest 399 459 31,800 -2,553 Descending FlightAware ADS-B (KDAA)
Sun 03:26:07 PM 39.0760 -76.7491 228° Southwest 405 466 31,300 -2,069 Descending FlightAware ADS-B (KWWD)
Sun 03:26:22 PM 39.0580 -76.7747 219° Southwest 415 478 30,800 -2,160 Descending FlightAware ADS-B (KDAA)
Sun 03:26:32 PM 39.0462 -76.7850 206° Southwest 427 491 30,400 -1,714 Descending FlightAware ADS-B (KDAA)
Sun 03:26:43 PM 39.0232 -76.7966 196° South 435 501 30,200 -1,800 Descending FlightAware ADS-B (KDAA)
Sun 03:26:52 PM 39.0017 -76.8003 185° South 447 514 29,800 -2,333 Descending FlightAware ADS-B (KDAA)
Sun 03:27:01 PM 38.9823 -76.7987 171° South 460 529 29,500 -1,800 Descending FlightAware ADS-B (KDAA)
Sun 03:27:02 PM 38.9815 -76.7986 170° South 454 522 29,500 -1,263 Level FlightAware ADS-B (KWWD)
Sun 03:27:20 PM 38.9518 -76.7855 155° Southeast 470 541 29,100 -774 Descending FlightAware ADS-B (KDAA)
Sun 03:27:33 PM 38.9232 -76.7580 139° Southeast 473 544 29,100 -273 Level FlightAware ADS-B (KDAA)
Sun 03:27:42 PM 38.9121 -76.7408 126° Southeast 469 540 29,000 -261 Descending FlightAware ADS-B (KDAA)
Sun 03:27:56 PM 38.8971 -76.7092 115° Southeast 461 531 29,000  Level FlightAware ADS-B (KWWD)
Sun 03:28:02 PM 38.8907 -76.6891 114° Southeast 461 531 29,000  Level FlightAware ADS-B (KDAA)
Sun 03:28:10 PM 38.8867 -76.6683 103° East 451 519 29,000  Level FlightAware ADS-B (KWWD)
Sun 03:28:18 PM 38.8856 -76.6486 91° East 438 504 29,000  Level FlightAware ADS-B (KWWD)
Sun 03:28:42 PM 38.8971 -76.5923 66° East 404 465 29,000  Level FlightAware ADS-B (KDAA)
Sun 03:28:44 PM 38.8957 -76.5962 67° East 404 465 29,000 -828 Level FlightAware ADS-B (KWWD)
Sun 03:29:11 PM 38.9262 -76.5350 45° Northeast 384 442 28,600 -968 Descending FlightAware ADS-B (KWWD)
Sun 03:29:15 PM 38.9302 -76.5298 45° Northeast 383 441 28,500 -2,233 Descending FlightAware ADS-B (KDAA)
Sun 03:29:54 PM 38.9796 -76.4667 46° Northeast 373 429 27,000 -2,113 Descending FlightAware ADS-B (KWWD)
Sun 03:30:26 PM 39.0187 -76.4165 45° Northeast 372 428 26,000 -1,935 Descending FlightAware ADS-B (KWWD)
Sun 03:30:56 PM 39.0559 -76.3685 45° Northeast 364 419 25,000 -1,900 Descending FlightAware ADS-B (KWWD)
Sun 03:31:26 PM 39.0911 -76.3232 45° Northeast 361 415 24,100 -909 Descending FlightAware ADS-B (KWWD)
Sun 03:32:02 PM 39.1339 -76.2678 47° Northeast 353 406 24,000 -85 Descending FlightAware ADS-B (KWWD)
Sun 03:32:37 PM 39.1733 -76.2165 46° Northeast 349 402 24,000  Level FlightAware ADS-B (KWWD)
Sun 03:33:17 PM 39.2203 -76.1551 46° Northeast 349 402 24,000  Level FlightAware ADS-B (KWWD)
Sun 03:33:22 PM 39.2251 -76.1488 41° Northeast 354 407 24,000  Level FlightAware ADS-B (LFML / MRS)
Sun 03:33:54 PM 39.2641 -76.1015 39° Northeast 353 406 24,000  Level FlightAware ADS-B (KWWD)
Sun 03:34:25 PM 39.3032 -76.0620 39° Northeast 347 399 24,000 -507 Level FlightAware ADS-B (KWWD)
Sun 03:35:05 PM 39.2993 -76.0659 37° Northeast 345 397 23,400 -1,597 Descending FlightAware ADS-B (LFML / MRS)
Sun 03:36:44 PM 39.4764 -75.8968 37° Northeast 310 357 20,300 -1,892 Descending FlightAware ADS-B (KWWD)
Sun 03:37:15 PM 39.5135 -75.8615 37° Northeast 320 368 19,300 -1,800 Descending FlightAware ADS-B (KWWD)
Sun 03:37:54 PM 39.5589 -75.8183 37° Northeast 309 356 18,200 -1,839 Descending FlightAware ADS-B (KWWD)
Sun 03:38:17 PM 39.5862 -75.7924 36° Northeast 310 357 17,400 -1,692 Descending FlightAware ADS-B
Sun 03:38:33 PM 39.6044 -75.7756 36° Northeast 303 349 17,100 -1,565 Descending FlightAware ADS-B (KWWD)
Sun 03:39:03 PM 39.6114 -75.7693 35° Northeast 309 356 16,200 -1,714 Descending FlightAware ADS-B
Sun 03:39:36 PM 39.6747 -75.7111 35° Northeast 296 341 15,300 -1,714 Descending FlightAware ADS-B
Sun 03:40:06 PM 39.6790 -75.7073 35° Northeast 285 328 14,400 -1,543 Descending FlightAware ADS-B
Sun 03:40:46 PM 39.7540 -75.6385 36° Northeast 285 328 13,500 -1,233 Descending FlightAware ADS-B (KWWD)
Sun 03:41:19 PM 39.7828 -75.6121 36° Northeast 293 337 12,900 -766 Descending FlightAware ADS-B
Sun 03:41:33 PM 39.8058 -75.5908 37° Northeast 285 328 12,900  Level FlightAware ADS-B (KWWD)
Sun 03:41:44 PM 39.8176 -75.5798 37° Northeast 285 328 12,900  Level FlightAware ADS-B (KWWD)
Sun 03:42:15 PM 39.8510 -75.5489 35° Northeast 291 335 12,900  Level FlightAware ADS-B
Sun 03:42:54 PM 39.8924 -75.5105 36° Northeast 289 333 12,900  Level FlightAware ADS-B
Sun 03:43:24 PM 39.9195 -75.4855 35° Northeast 286 329 12,900  Level FlightAware ADS-B
Sun 03:43:58 PM 39.9635 -75.4446 37° Northeast 277 319 12,900  Level FlightAware ADS-B (KWWD)
Sun 03:44:29 PM 39.9962 -75.4143 36° Northeast 277 319 12,900  Level FlightAware ADS-B (KWWD)
Sun 03:44:59 PM 40.0171 -75.3949 36° Northeast 288 331 12,900  Level FlightAware ADS-B (KPHL)
Sun 03:45:07 PM 40.0368 -75.3765 37° Northeast 281 323 12,900  Level FlightAware ADS-B (KWWD)
Sun 03:45:44 PM 40.0584 -75.3564 36° Northeast 281 323 12,900  Level FlightAware ADS-B (KPHL)
Sun 03:46:15 PM 40.0871 -75.3298 36° Northeast 282 325 12,900  Level FlightAware ADS-B (KPHL)
Sun 03:46:45 PM 40.1421 -75.2785 36° Northeast 283 326 12,900 -493 Level FlightAware ADS-B (KWWD)
Sun 03:47:28 PM 40.1861 -75.2375 36° Northeast 275 316 12,300 -1,227 Descending FlightAware ADS-B (KWWD)
Sun 03:48:13 PM 40.2208 -75.2052 36° Northeast 277 319 11,100 -1,325 Descending FlightAware ADS-B (KPHL)
Sun 03:48:45 PM 40.2456 -75.1819 36° Northeast 272 313 10,600 -1,345 Descending FlightAware ADS-B (KPHL)
Sun 03:49:11 PM 40.2850 -75.1451 36° Northeast 276 318 9,800 -1,535 Descending FlightAware ADS-B (KPHL)
Sun 03:49:28 PM 40.3115 -75.1188 40° Northeast 276 318 9,500 -1,297 Descending FlightAware ADS-B (KWWD)
Sun 03:49:48 PM 40.3289 -75.0968 45° Northeast 273 314 9,000 -1,535 Descending FlightAware ADS-B (KWWD)
Sun 03:50:11 PM 40.3489 -75.0702 46° Northeast 265 305 8,400 -1,556 Descending FlightAware ADS-B (KPHL)
Sun 03:50:42 PM 40.3759 -75.0333 47° Northeast 265 305 7,600 -1,469 Descending FlightAware ADS-B (KWWD)
Sun 03:51:00 PM 40.3904 -75.0133 47° Northeast 265 305 7,200 -1,029 Descending FlightAware ADS-B (KWWD)
Sun 03:51:17 PM 40.4052 -74.9929 47° Northeast 258 297 7,000 -514 Descending FlightAware ADS-B (KWWD)
Sun 03:51:35 PM 40.4183 -74.9745 47° Northeast 265 305 6,900 -439 Descending FlightAware ADS-B (KWWD)
Sun 03:51:58 PM 40.4391 -74.9454 47° Northeast 260 299 6,700 -1,200 Descending FlightAware ADS-B (KWWD)
Sun 03:52:25 PM 40.4613 -74.9143 47° Northeast 261 300 5,900 -1,683 Descending FlightAware ADS-B (KWWD)
Sun 03:53:20 PM 40.5000 -74.8500 47° Northeast 260 299 4,400 -1,101 Descending New York TRACON
Sun 03:54:14 PM 40.5333 -74.7833 57° Northeast 260 299 3,900 -474 Descending New York TRACON
Sun 03:55:14 PM 40.5667 -74.7000 62° Northeast 258 297 3,500 -400 Descending New York TRACON
Sun 03:56:14 PM 40.6000 -74.6167 62° Northeast 249 287 3,100 -250 Descending New York TRACON
Sun 03:57:14 PM 40.6167 -74.5333 75° East 224 258 3,000 -48 Descending New York TRACON
Sun 03:58:20 PM 40.6500 -74.4667 57° Northeast 204 235 3,000  Level New York TRACON
Sun 03:59:14 PM 40.6667 -74.4000 72° East 197 227 3,000 -500 Level New York TRACON
Sun 04:00:20 PM 40.6833 -74.3333 72° East 174 200 2,000 -476 Descending New York TRACON
Sun 04:01:20 PM 40.7000 -74.2833 66° East 167 192 2,000  Level New York TRACON
Sun 04:02:20 PM 40.7333 -74.2333 49° Northeast 172 198 2,000 -250 Level New York TRACON
Sun 04:03:20 PM 40.7667 -74.1833 49° Northeast 176 203 1,500 -263 Descending New York TRACON
Sun 04:04:14 PM 40.8000 -74.1500 37° Northeast 164 189 1,500 -200 Level New York TRACON
Sun 04:05:20 PM 40.8167 -74.0833 72° East 162 186 1,100 -364 Descending New York TRACON

Login

Don't have an account? Register now (free) for customized features, flight alerts, and more!